sensor_id;sensor_type;location;lat;lon;timestamp;P1;durP1;ratioP1;P2;durP2;ratioP2
65202;SDS011;51788;45.124;38.966;2023-05-29T00:00:19;8.15;;;4.45;;
65202;SDS011;51788;45.124;38.966;2023-05-29T00:02:46;8.55;;;4.50;;
65202;SDS011;51788;45.124;38.966;2023-05-29T00:05:13;6.45;;;4.00;;
65202;SDS011;51788;45.124;38.966;2023-05-29T00:07:40;11.88;;;5.47;;
65202;SDS011;51788;45.124;38.966;2023-05-29T00:10:07;6.90;;;4.63;;
65202;SDS011;51788;45.124;38.966;2023-05-29T00:12:34;7.18;;;4.55;;
65202;SDS011;51788;45.124;38.966;2023-05-29T00:15:01;4.15;;;3.70;;
65202;SDS011;51788;45.124;38.966;2023-05-29T00:17:29;8.52;;;4.85;;
65202;SDS011;51788;45.124;38.966;2023-05-29T00:19:57;8.55;;;4.15;;
65202;SDS011;51788;45.124;38.966;2023-05-29T00:22:24;5.63;;;4.22;;
65202;SDS011;51788;45.124;38.966;2023-05-29T00:24:51;10.30;;;4.13;;
65202;SDS011;51788;45.124;38.966;2023-05-29T00:27:17;4.55;;;4.15;;
65202;SDS011;51788;45.124;38.966;2023-05-29T00:29:43;6.78;;;4.05;;
65202;SDS011;51788;45.124;38.966;2023-05-29T00:32:10;8.15;;;4.28;;
65202;SDS011;51788;45.124;38.966;2023-05-29T00:34:36;5.50;;;4.30;;
65202;SDS011;51788;45.124;38.966;2023-05-29T00:37:02;12.88;;;4.38;;
65202;SDS011;51788;45.124;38.966;2023-05-29T00:39:28;7.93;;;5.03;;
65202;SDS011;51788;45.124;38.966;2023-05-29T00:41:54;11.65;;;4.40;;
65202;SDS011;51788;45.124;38.966;2023-05-29T00:44:21;8.25;;;4.22;;
65202;SDS011;51788;45.124;38.966;2023-05-29T00:46:48;7.00;;;4.47;;
65202;SDS011;51788;45.124;38.966;2023-05-29T00:49:16;12.02;;;4.53;;
65202;SDS011;51788;45.124;38.966;2023-05-29T00:51:43;9.00;;;3.92;;
65202;SDS011;51788;45.124;38.966;2023-05-29T00:54:11;16.15;;;4.60;;
65202;SDS011;51788;45.124;38.966;2023-05-29T00:56:40;7.13;;;3.83;;
65202;SDS011;51788;45.124;38.966;2023-05-29T00:59:09;6.07;;;4.22;;
65202;SDS011;51788;45.124;38.966;2023-05-29T01:01:37;7.70;;;3.38;;
65202;SDS011;51788;45.124;38.966;2023-05-29T01:04:05;6.55;;;3.83;;
65202;SDS011;51788;45.124;38.966;2023-05-29T01:06:32;10.05;;;4.57;;
65202;SDS011;51788;45.124;38.966;2023-05-29T01:08:58;11.70;;;4.57;;
65202;SDS011;51788;45.124;38.966;2023-05-29T01:11:27;8.60;;;4.53;;
65202;SDS011;51788;45.124;38.966;2023-05-29T01:14:17;7.93;;;4.00;;
65202;SDS011;51788;45.124;38.966;2023-05-29T01:16:55;4.70;;;4.20;;
65202;SDS011;51788;45.124;38.966;2023-05-29T01:22:46;7.53;;;3.92;;
65202;SDS011;51788;45.124;38.966;2023-05-29T01:28:08;4.75;;;3.42;;
65202;SDS011;51788;45.124;38.966;2023-05-29T01:30:38;7.65;;;4.03;;
65202;SDS011;51788;45.124;38.966;2023-05-29T01:33:07;9.38;;;3.92;;
65202;SDS011;51788;45.124;38.966;2023-05-29T01:35:33;4.97;;;3.67;;
65202;SDS011;51788;45.124;38.966;2023-05-29T01:37:59;4.65;;;3.95;;
65202;SDS011;51788;45.124;38.966;2023-05-29T01:40:25;7.05;;;3.78;;
65202;SDS011;51788;45.124;38.966;2023-05-29T01:42:51;9.32;;;4.45;;
65202;SDS011;51788;45.124;38.966;2023-05-29T01:45:19;11.55;;;3.40;;
65202;SDS011;51788;45.124;38.966;2023-05-29T01:47:46;7.72;;;4.35;;
65202;SDS011;51788;45.124;38.966;2023-05-29T01:50:13;9.60;;;3.70;;
65202;SDS011;51788;45.124;38.966;2023-05-29T01:52:41;6.63;;;3.55;;
65202;SDS011;51788;45.124;38.966;2023-05-29T01:55:07;7.00;;;3.92;;
65202;SDS011;51788;45.124;38.966;2023-05-29T01:57:34;9.27;;;4.20;;
65202;SDS011;51788;45.124;38.966;2023-05-29T02:00:02;4.50;;;3.90;;
65202;SDS011;51788;45.124;38.966;2023-05-29T02:02:39;9.25;;;4.35;;
65202;SDS011;51788;45.124;38.966;2023-05-29T02:05:07;5.15;;;4.15;;
65202;SDS011;51788;45.124;38.966;2023-05-29T02:07:34;3.95;;;3.55;;
65202;SDS011;51788;45.124;38.966;2023-05-29T02:10:02;6.10;;;3.55;;
65202;SDS011;51788;45.124;38.966;2023-05-29T02:12:32;5.28;;;3.58;;
65202;SDS011;51788;45.124;38.966;2023-05-29T02:14:58;8.23;;;3.65;;
65202;SDS011;51788;45.124;38.966;2023-05-29T02:17:26;12.00;;;4.35;;
65202;SDS011;51788;45.124;38.966;2023-05-29T02:19:52;10.50;;;3.80;;
65202;SDS011;51788;45.124;38.966;2023-05-29T02:22:18;5.00;;;3.80;;
65202;SDS011;51788;45.124;38.966;2023-05-29T02:24:44;3.42;;;3.10;;
65202;SDS011;51788;45.124;38.966;2023-05-29T02:27:10;6.85;;;3.25;;
65202;SDS011;51788;45.124;38.966;2023-05-29T02:29:36;12.48;;;3.95;;
65202;SDS011;51788;45.124;38.966;2023-05-29T02:32:02;8.68;;;3.90;;
65202;SDS011;51788;45.124;38.966;2023-05-29T02:34:32;10.25;;;3.90;;
65202;SDS011;51788;45.124;38.966;2023-05-29T02:36:58;10.05;;;4.10;;
65202;SDS011;51788;45.124;38.966;2023-05-29T02:39:24;14.90;;;4.82;;
65202;SDS011;51788;45.124;38.966;2023-05-29T02:41:50;11.32;;;3.47;;
65202;SDS011;51788;45.124;38.966;2023-05-29T02:44:16;6.82;;;4.22;;
65202;SDS011;51788;45.124;38.966;2023-05-29T02:46:42;10.88;;;4.95;;
65202;SDS011;51788;45.124;38.966;2023-05-29T02:49:08;9.07;;;3.97;;
65202;SDS011;51788;45.124;38.966;2023-05-29T02:51:34;6.65;;;3.97;;
65202;SDS011;51788;45.124;38.966;2023-05-29T02:54:00;8.20;;;3.20;;
65202;SDS011;51788;45.124;38.966;2023-05-29T02:56:26;4.78;;;3.63;;
65202;SDS011;51788;45.124;38.966;2023-05-29T02:58:52;8.45;;;3.90;;
65202;SDS011;51788;45.124;38.966;2023-05-29T03:01:18;4.80;;;4.05;;
65202;SDS011;51788;45.124;38.966;2023-05-29T03:03:44;5.43;;;3.95;;
65202;SDS011;51788;45.124;38.966;2023-05-29T03:06:11;5.18;;;3.83;;
65202;SDS011;51788;45.124;38.966;2023-05-29T03:08:41;4.43;;;3.88;;
65202;SDS011;51788;45.124;38.966;2023-05-29T03:11:10;9.57;;;3.85;;
65202;SDS011;51788;45.124;38.966;2023-05-29T03:13:37;7.00;;;3.58;;
65202;SDS011;51788;45.124;38.966;2023-05-29T03:16:06;8.52;;;4.13;;
65202;SDS011;51788;45.124;38.966;2023-05-29T03:18:35;9.57;;;4.47;;
65202;SDS011;51788;45.124;38.966;2023-05-29T03:21:02;8.88;;;3.47;;
65202;SDS011;51788;45.124;38.966;2023-05-29T03:23:31;9.90;;;4.28;;
65202;SDS011;51788;45.124;38.966;2023-05-29T03:25:57;11.73;;;3.47;;
65202;SDS011;51788;45.124;38.966;2023-05-29T03:28:24;9.55;;;4.07;;
65202;SDS011;51788;45.124;38.966;2023-05-29T03:30:51;14.77;;;4.55;;
65202;SDS011;51788;45.124;38.966;2023-05-29T03:33:19;10.25;;;4.72;;
65202;SDS011;51788;45.124;38.966;2023-05-29T03:36:06;12.70;;;4.07;;
65202;SDS011;51788;45.124;38.966;2023-05-29T03:38:33;4.38;;;2.85;;
65202;SDS011;51788;45.124;38.966;2023-05-29T03:41:00;8.55;;;3.47;;
65202;SDS011;51788;45.124;38.966;2023-05-29T03:43:26;6.18;;;2.85;;
65202;SDS011;51788;45.124;38.966;2023-05-29T03:45:52;4.38;;;3.22;;
65202;SDS011;51788;45.124;38.966;2023-05-29T03:48:19;8.23;;;3.35;;
65202;SDS011;51788;45.124;38.966;2023-05-29T03:50:47;5.75;;;3.28;;
65202;SDS011;51788;45.124;38.966;2023-05-29T03:53:21;5.03;;;3.17;;
65202;SDS011;51788;45.124;38.966;2023-05-29T03:55:47;5.90;;;3.45;;
65202;SDS011;51788;45.124;38.966;2023-05-29T03:58:13;4.75;;;3.50;;
65202;SDS011;51788;45.124;38.966;2023-05-29T04:00:41;10.98;;;3.60;;
65202;SDS011;51788;45.124;38.966;2023-05-29T04:03:08;10.05;;;3.17;;
65202;SDS011;51788;45.124;38.966;2023-05-29T04:05:34;7.55;;;3.78;;
65202;SDS011;51788;45.124;38.966;2023-05-29T04:08:00;6.03;;;3.08;;
65202;SDS011;51788;45.124;38.966;2023-05-29T04:10:30;9.10;;;3.42;;
65202;SDS011;51788;45.124;38.966;2023-05-29T04:12:59;18.40;;;3.70;;
65202;SDS011;51788;45.124;38.966;2023-05-29T04:15:29;6.45;;;2.75;;
65202;SDS011;51788;45.124;38.966;2023-05-29T04:17:55;8.45;;;3.67;;
65202;SDS011;51788;45.124;38.966;2023-05-29T04:20:22;10.70;;;3.08;;
65202;SDS011;51788;45.124;38.966;2023-05-29T04:22:48;5.53;;;3.65;;
65202;SDS011;51788;45.124;38.966;2023-05-29T04:25:14;7.10;;;3.30;;
65202;SDS011;51788;45.124;38.966;2023-05-29T04:27:41;7.57;;;3.25;;
65202;SDS011;51788;45.124;38.966;2023-05-29T04:30:09;11.70;;;4.05;;
65202;SDS011;51788;45.124;38.966;2023-05-29T04:32:43;6.55;;;3.22;;
65202;SDS011;51788;45.124;38.966;2023-05-29T04:35:09;19.05;;;2.80;;
65202;SDS011;51788;45.124;38.966;2023-05-29T04:40:10;4.40;;;3.28;;
65202;SDS011;51788;45.124;38.966;2023-05-29T04:42:36;20.55;;;3.88;;
65202;SDS011;51788;45.124;38.966;2023-05-29T04:45:03;6.45;;;2.88;;
65202;SDS011;51788;45.124;38.966;2023-05-29T04:47:34;7.30;;;3.08;;
65202;SDS011;51788;45.124;38.966;2023-05-29T04:50:02;3.63;;;3.33;;
65202;SDS011;51788;45.124;38.966;2023-05-29T04:52:28;5.70;;;3.47;;
65202;SDS011;51788;45.124;38.966;2023-05-29T04:54:54;9.85;;;3.15;;
65202;SDS011;51788;45.124;38.966;2023-05-29T04:57:22;5.47;;;3.10;;
65202;SDS011;51788;45.124;38.966;2023-05-29T04:59:49;6.53;;;3.25;;
65202;SDS011;51788;45.124;38.966;2023-05-29T05:02:15;3.50;;;3.13;;
65202;SDS011;51788;45.124;38.966;2023-05-29T05:04:41;9.55;;;3.45;;
65202;SDS011;51788;45.124;38.966;2023-05-29T05:07:08;10.48;;;4.13;;
65202;SDS011;51788;45.124;38.966;2023-05-29T05:09:35;7.97;;;3.65;;
65202;SDS011;51788;45.124;38.966;2023-05-29T05:12:02;6.90;;;4.28;;
65202;SDS011;51788;45.124;38.966;2023-05-29T05:14:29;7.47;;;3.25;;
65202;SDS011;51788;45.124;38.966;2023-05-29T05:16:55;10.80;;;3.97;;
65202;SDS011;51788;45.124;38.966;2023-05-29T05:19:21;19.40;;;3.85;;
65202;SDS011;51788;45.124;38.966;2023-05-29T05:21:47;10.85;;;4.10;;
65202;SDS011;51788;45.124;38.966;2023-05-29T05:24:14;5.00;;;3.67;;
65202;SDS011;51788;45.124;38.966;2023-05-29T05:26:40;9.02;;;3.85;;
65202;SDS011;51788;45.124;38.966;2023-05-29T05:29:06;12.85;;;3.90;;
65202;SDS011;51788;45.124;38.966;2023-05-29T05:31:38;9.97;;;3.50;;
65202;SDS011;51788;45.124;38.966;2023-05-29T05:34:03;27.08;;;6.25;;
65202;SDS011;51788;45.124;38.966;2023-05-29T05:36:30;5.20;;;3.47;;
65202;SDS011;51788;45.124;38.966;2023-05-29T05:39:03;12.70;;;3.40;;
65202;SDS011;51788;45.124;38.966;2023-05-29T05:41:30;17.50;;;3.47;;
65202;SDS011;51788;45.124;38.966;2023-05-29T05:43:58;16.95;;;4.03;;
65202;SDS011;51788;45.124;38.966;2023-05-29T05:46:40;9.95;;;3.60;;
65202;SDS011;51788;45.124;38.966;2023-05-29T05:49:07;14.13;;;3.72;;
65202;SDS011;51788;45.124;38.966;2023-05-29T05:51:34;8.32;;;3.15;;
65202;SDS011;51788;45.124;38.966;2023-05-29T05:54:00;7.22;;;2.42;;
65202;SDS011;51788;45.124;38.966;2023-05-29T05:56:27;4.88;;;3.15;;
65202;SDS011;51788;45.124;38.966;2023-05-29T05:58:53;12.30;;;3.42;;
65202;SDS011;51788;45.124;38.966;2023-05-29T06:01:20;9.00;;;2.80;;
65202;SDS011;51788;45.124;38.966;2023-05-29T06:03:47;11.65;;;3.15;;
65202;SDS011;51788;45.124;38.966;2023-05-29T06:06:13;16.40;;;2.60;;
65202;SDS011;51788;45.124;38.966;2023-05-29T06:08:41;3.50;;;1.92;;
65202;SDS011;51788;45.124;38.966;2023-05-29T06:11:09;6.32;;;2.15;;
65202;SDS011;51788;45.124;38.966;2023-05-29T06:13:37;6.97;;;2.35;;
65202;SDS011;51788;45.124;38.966;2023-05-29T06:16:08;9.73;;;2.35;;
65202;SDS011;51788;45.124;38.966;2023-05-29T06:18:34;3.95;;;2.30;;
65202;SDS011;51788;45.124;38.966;2023-05-29T06:21:01;5.40;;;2.40;;
65202;SDS011;51788;45.124;38.966;2023-05-29T06:23:28;2.83;;;1.90;;
65202;SDS011;51788;45.124;38.966;2023-05-29T06:25:55;6.95;;;2.42;;
65202;SDS011;51788;45.124;38.966;2023-05-29T06:28:21;3.47;;;2.35;;
65202;SDS011;51788;45.124;38.966;2023-05-29T06:30:48;10.30;;;2.53;;
65202;SDS011;51788;45.124;38.966;2023-05-29T06:33:14;2.50;;;2.30;;
65202;SDS011;51788;45.124;38.966;2023-05-29T06:35:40;6.95;;;2.65;;
65202;SDS011;51788;45.124;38.966;2023-05-29T06:38:07;4.32;;;2.83;;
65202;SDS011;51788;45.124;38.966;2023-05-29T06:40:33;4.07;;;2.53;;
65202;SDS011;51788;45.124;38.966;2023-05-29T06:43:00;3.17;;;2.40;;
65202;SDS011;51788;45.124;38.966;2023-05-29T06:45:44;4.82;;;2.70;;
65202;SDS011;51788;45.124;38.966;2023-05-29T06:48:11;4.07;;;2.97;;
65202;SDS011;51788;45.124;38.966;2023-05-29T06:50:38;3.85;;;2.60;;
65202;SDS011;51788;45.124;38.966;2023-05-29T06:53:24;3.92;;;2.70;;
65202;SDS011;51788;45.124;38.966;2023-05-29T06:55:53;4.47;;;2.80;;
65202;SDS011;51788;45.124;38.966;2023-05-29T06:58:19;3.95;;;2.90;;
65202;SDS011;51788;45.124;38.966;2023-05-29T07:00:46;4.18;;;3.53;;
65202;SDS011;51788;45.124;38.966;2023-05-29T07:03:31;6.72;;;3.50;;
65202;SDS011;51788;45.124;38.966;2023-05-29T07:05:58;11.93;;;5.07;;
65202;SDS011;51788;45.124;38.966;2023-05-29T07:08:24;6.15;;;5.65;;
65202;SDS011;51788;45.124;38.966;2023-05-29T07:10:51;7.22;;;3.90;;
65202;SDS011;51788;45.124;38.966;2023-05-29T07:13:19;5.25;;;3.72;;
65202;SDS011;51788;45.124;38.966;2023-05-29T07:15:45;3.47;;;3.17;;
65202;SDS011;51788;45.124;38.966;2023-05-29T07:18:13;6.53;;;3.42;;
65202;SDS011;51788;45.124;38.966;2023-05-29T07:20:40;5.90;;;3.25;;
65202;SDS011;51788;45.124;38.966;2023-05-29T07:23:07;5.25;;;3.70;;
65202;SDS011;51788;45.124;38.966;2023-05-29T07:25:34;9.93;;;4.10;;
65202;SDS011;51788;45.124;38.966;2023-05-29T07:28:00;4.50;;;2.90;;
65202;SDS011;51788;45.124;38.966;2023-05-29T07:30:26;8.15;;;3.83;;
65202;SDS011;51788;45.124;38.966;2023-05-29T07:32:53;3.45;;;2.83;;
65202;SDS011;51788;45.124;38.966;2023-05-29T07:35:19;7.72;;;3.08;;
65202;SDS011;51788;45.124;38.966;2023-05-29T07:37:47;4.72;;;4.05;;
65202;SDS011;51788;45.124;38.966;2023-05-29T07:40:16;8.32;;;5.78;;
65202;SDS011;51788;45.124;38.966;2023-05-29T07:42:58;4.22;;;3.83;;
65202;SDS011;51788;45.124;38.966;2023-05-29T07:47:56;4.20;;;3.30;;
65202;SDS011;51788;45.124;38.966;2023-05-29T07:50:22;4.30;;;2.83;;
65202;SDS011;51788;45.124;38.966;2023-05-29T07:52:48;6.32;;;3.10;;
65202;SDS011;51788;45.124;38.966;2023-05-29T07:55:14;2.60;;;2.40;;
65202;SDS011;51788;45.124;38.966;2023-05-29T07:57:42;2.88;;;2.67;;
65202;SDS011;51788;45.124;38.966;2023-05-29T08:00:08;2.63;;;2.42;;
65202;SDS011;51788;45.124;38.966;2023-05-29T08:02:44;3.08;;;2.65;;
65202;SDS011;51788;45.124;38.966;2023-05-29T08:05:29;8.75;;;2.45;;
65202;SDS011;51788;45.124;38.966;2023-05-29T08:07:59;4.97;;;2.83;;
65202;SDS011;51788;45.124;38.966;2023-05-29T08:10:26;7.10;;;2.63;;
65202;SDS011;51788;45.124;38.966;2023-05-29T08:12:52;2.45;;;2.22;;
65202;SDS011;51788;45.124;38.966;2023-05-29T08:15:19;2.90;;;2.65;;
65202;SDS011;51788;45.124;38.966;2023-05-29T08:17:46;7.38;;;3.00;;
65202;SDS011;51788;45.124;38.966;2023-05-29T08:20:12;6.85;;;2.88;;
65202;SDS011;51788;45.124;38.966;2023-05-29T08:22:38;3.17;;;2.55;;
65202;SDS011;51788;45.124;38.966;2023-05-29T08:25:04;3.78;;;3.20;;
65202;SDS011;51788;45.124;38.966;2023-05-29T08:27:30;6.90;;;3.75;;
65202;SDS011;51788;45.124;38.966;2023-05-29T08:29:56;8.20;;;3.28;;
65202;SDS011;51788;45.124;38.966;2023-05-29T08:32:22;4.40;;;2.47;;
65202;SDS011;51788;45.124;38.966;2023-05-29T08:34:48;5.38;;;3.40;;
65202;SDS011;51788;45.124;38.966;2023-05-29T08:37:16;3.28;;;2.15;;
65202;SDS011;51788;45.124;38.966;2023-05-29T08:39:42;7.00;;;2.50;;
65202;SDS011;51788;45.124;38.966;2023-05-29T08:42:19;4.60;;;2.25;;
65202;SDS011;51788;45.124;38.966;2023-05-29T08:44:47;5.10;;;2.67;;
65202;SDS011;51788;45.124;38.966;2023-05-29T08:47:16;2.85;;;2.65;;
65202;SDS011;51788;45.124;38.966;2023-05-29T08:49:48;4.45;;;2.22;;
65202;SDS011;51788;45.124;38.966;2023-05-29T08:52:19;4.72;;;2.47;;
65202;SDS011;51788;45.124;38.966;2023-05-29T08:54:47;6.57;;;3.05;;
65202;SDS011;51788;45.124;38.966;2023-05-29T08:57:14;4.50;;;2.80;;
65202;SDS011;51788;45.124;38.966;2023-05-29T08:59:41;5.55;;;3.42;;
65202;SDS011;51788;45.124;38.966;2023-05-29T09:02:09;5.40;;;4.15;;
65202;SDS011;51788;45.124;38.966;2023-05-29T09:04:40;9.70;;;3.60;;
65202;SDS011;51788;45.124;38.966;2023-05-29T09:07:11;6.35;;;3.33;;
65202;SDS011;51788;45.124;38.966;2023-05-29T09:09:38;3.50;;;3.05;;
65202;SDS011;51788;45.124;38.966;2023-05-29T09:12:04;4.93;;;3.50;;
65202;SDS011;51788;45.124;38.966;2023-05-29T09:14:34;3.38;;;3.08;;
65202;SDS011;51788;45.124;38.966;2023-05-29T09:17:05;3.78;;;3.13;;
65202;SDS011;51788;45.124;38.966;2023-05-29T09:19:32;5.47;;;3.47;;
65202;SDS011;51788;45.124;38.966;2023-05-29T09:22:05;4.28;;;3.03;;
65202;SDS011;51788;45.124;38.966;2023-05-29T09:24:33;4.63;;;3.45;;
65202;SDS011;51788;45.124;38.966;2023-05-29T09:27:00;3.67;;;3.38;;
65202;SDS011;51788;45.124;38.966;2023-05-29T09:29:27;3.45;;;3.25;;
65202;SDS011;51788;45.124;38.966;2023-05-29T09:31:56;7.05;;;3.78;;
65202;SDS011;51788;45.124;38.966;2023-05-29T09:34:23;11.57;;;4.72;;
65202;SDS011;51788;45.124;38.966;2023-05-29T09:36:52;6.47;;;3.72;;
65202;SDS011;51788;45.124;38.966;2023-05-29T09:39:18;6.63;;;4.53;;
65202;SDS011;51788;45.124;38.966;2023-05-29T09:41:44;5.53;;;3.72;;
65202;SDS011;51788;45.124;38.966;2023-05-29T09:44:14;3.72;;;3.42;;
65202;SDS011;51788;45.124;38.966;2023-05-29T09:46:40;3.90;;;3.20;;
65202;SDS011;51788;45.124;38.966;2023-05-29T09:49:09;4.47;;;4.18;;
65202;SDS011;51788;45.124;38.966;2023-05-29T09:51:36;4.68;;;4.28;;
65202;SDS011;51788;45.124;38.966;2023-05-29T09:54:18;7.22;;;4.57;;
65202;SDS011;51788;45.124;38.966;2023-05-29T09:56:44;7.53;;;4.70;;
65202;SDS011;51788;45.124;38.966;2023-05-29T09:59:12;18.15;;;8.45;;
65202;SDS011;51788;45.124;38.966;2023-05-29T10:01:42;8.13;;;6.70;;
65202;SDS011;51788;45.124;38.966;2023-05-29T10:04:12;5.30;;;4.53;;
65202;SDS011;51788;45.124;38.966;2023-05-29T10:06:41;7.43;;;5.63;;
65202;SDS011;51788;45.124;38.966;2023-05-29T10:09:14;6.25;;;5.63;;
65202;SDS011;51788;45.124;38.966;2023-05-29T10:11:43;9.00;;;5.18;;
65202;SDS011;51788;45.124;38.966;2023-05-29T10:14:14;5.03;;;4.15;;
65202;SDS011;51788;45.124;38.966;2023-05-29T10:16:45;10.02;;;4.47;;
65202;SDS011;51788;45.124;38.966;2023-05-29T10:19:13;5.85;;;4.28;;
65202;SDS011;51788;45.124;38.966;2023-05-29T10:21:45;5.13;;;4.65;;
65202;SDS011;51788;45.124;38.966;2023-05-29T10:24:13;4.38;;;3.97;;
65202;SDS011;51788;45.124;38.966;2023-05-29T10:26:40;9.07;;;4.90;;
65202;SDS011;51788;45.124;38.966;2023-05-29T10:29:17;10.80;;;5.10;;
65202;SDS011;51788;45.124;38.966;2023-05-29T10:31:58;6.40;;;4.55;;
65202;SDS011;51788;45.124;38.966;2023-05-29T10:37:15;4.60;;;4.20;;
65202;SDS011;51788;45.124;38.966;2023-05-29T10:39:50;6.78;;;5.00;;
65202;SDS011;51788;45.124;38.966;2023-05-29T10:45:04;7.47;;;4.88;;
65202;SDS011;51788;45.124;38.966;2023-05-29T10:47:31;5.13;;;4.63;;
65202;SDS011;51788;45.124;38.966;2023-05-29T10:50:00;4.78;;;4.00;;
65202;SDS011;51788;45.124;38.966;2023-05-29T10:52:30;4.95;;;4.55;;
65202;SDS011;51788;45.124;38.966;2023-05-29T10:55:00;8.38;;;5.30;;
65202;SDS011;51788;45.124;38.966;2023-05-29T10:57:29;5.85;;;5.25;;
65202;SDS011;51788;45.124;38.966;2023-05-29T11:00:04;7.10;;;4.90;;
65202;SDS011;51788;45.124;38.966;2023-05-29T11:02:36;4.82;;;4.15;;
65202;SDS011;51788;45.124;38.966;2023-05-29T11:05:19;9.93;;;4.30;;
65202;SDS011;51788;45.124;38.966;2023-05-29T11:07:55;9.32;;;5.18;;
65202;SDS011;51788;45.124;38.966;2023-05-29T11:13:34;12.18;;;4.40;;
65202;SDS011;51788;45.124;38.966;2023-05-29T11:18:41;7.55;;;4.90;;
65202;SDS011;51788;45.124;38.966;2023-05-29T11:21:53;9.80;;;4.63;;
65202;SDS011;51788;45.124;38.966;2023-05-29T11:24:25;7.35;;;5.22;;
65202;SDS011;51788;45.124;38.966;2023-05-29T11:26:53;11.88;;;4.85;;
65202;SDS011;51788;45.124;38.966;2023-05-29T11:29:26;7.70;;;5.88;;
65202;SDS011;51788;45.124;38.966;2023-05-29T11:32:02;8.05;;;5.22;;
65202;SDS011;51788;45.124;38.966;2023-05-29T11:34:35;5.97;;;4.75;;
65202;SDS011;51788;45.124;38.966;2023-05-29T11:37:04;6.10;;;4.70;;
65202;SDS011;51788;45.124;38.966;2023-05-29T11:39:31;6.28;;;4.55;;
65202;SDS011;51788;45.124;38.966;2023-05-29T11:42:02;9.70;;;5.20;;
65202;SDS011;51788;45.124;38.966;2023-05-29T11:44:28;7.45;;;4.70;;
65202;SDS011;51788;45.124;38.966;2023-05-29T11:47:01;8.98;;;5.03;;
65202;SDS011;51788;45.124;38.966;2023-05-29T11:49:31;11.07;;;5.47;;
65202;SDS011;51788;45.124;38.966;2023-05-29T11:52:11;11.57;;;5.43;;
65202;SDS011;51788;45.124;38.966;2023-05-29T11:54:42;11.75;;;5.65;;
65202;SDS011;51788;45.124;38.966;2023-05-29T11:57:21;9.18;;;5.28;;
65202;SDS011;51788;45.124;38.966;2023-05-29T11:59:51;6.45;;;4.90;;
65202;SDS011;51788;45.124;38.966;2023-05-29T12:02:23;9.45;;;5.30;;
65202;SDS011;51788;45.124;38.966;2023-05-29T12:05:00;8.52;;;5.00;;
65202;SDS011;51788;45.124;38.966;2023-05-29T12:07:33;9.13;;;4.63;;
65202;SDS011;51788;45.124;38.966;2023-05-29T12:10:15;6.90;;;5.53;;
65202;SDS011;51788;45.124;38.966;2023-05-29T12:12:44;5.55;;;5.05;;
65202;SDS011;51788;45.124;38.966;2023-05-29T12:15:16;7.28;;;5.70;;
65202;SDS011;51788;45.124;38.966;2023-05-29T12:17:46;12.75;;;5.30;;
65202;SDS011;51788;45.124;38.966;2023-05-29T12:20:13;7.07;;;5.95;;
65202;SDS011;51788;45.124;38.966;2023-05-29T12:22:41;6.68;;;5.85;;
65202;SDS011;51788;45.124;38.966;2023-05-29T12:25:11;8.25;;;5.82;;
65202;SDS011;51788;45.124;38.966;2023-05-29T12:27:47;9.23;;;5.78;;
65202;SDS011;51788;45.124;38.966;2023-05-29T12:32:47;11.18;;;6.50;;
65202;SDS011;51788;45.124;38.966;2023-05-29T12:35:16;17.35;;;6.45;;
65202;SDS011;51788;45.124;38.966;2023-05-29T12:37:49;9.05;;;5.47;;
65202;SDS011;51788;45.124;38.966;2023-05-29T12:42:49;9.18;;;5.88;;
65202;SDS011;51788;45.124;38.966;2023-05-29T12:45:19;8.20;;;5.43;;
65202;SDS011;51788;45.124;38.966;2023-05-29T12:47:53;11.57;;;5.82;;
65202;SDS011;51788;45.124;38.966;2023-05-29T12:50:20;9.65;;;5.35;;
65202;SDS011;51788;45.124;38.966;2023-05-29T12:53:20;9.25;;;5.65;;
65202;SDS011;51788;45.124;38.966;2023-05-29T12:55:40;9.15;;;5.43;;
65202;SDS011;51788;45.124;38.966;2023-05-29T12:58:08;6.05;;;5.55;;
65202;SDS011;51788;45.124;38.966;2023-05-29T13:00:36;8.20;;;5.63;;
65202;SDS011;51788;45.124;38.966;2023-05-29T13:03:04;10.07;;;4.95;;
65202;SDS011;51788;45.124;38.966;2023-05-29T13:05:31;16.08;;;6.05;;
65202;SDS011;51788;45.124;38.966;2023-05-29T13:07:57;7.40;;;5.38;;
65202;SDS011;51788;45.124;38.966;2023-05-29T13:10:25;8.45;;;5.60;;
65202;SDS011;51788;45.124;38.966;2023-05-29T13:12:53;17.50;;;5.80;;
65202;SDS011;51788;45.124;38.966;2023-05-29T13:15:23;12.02;;;5.72;;
65202;SDS011;51788;45.124;38.966;2023-05-29T13:17:50;8.05;;;4.85;;
65202;SDS011;51788;45.124;38.966;2023-05-29T13:20:16;15.18;;;5.43;;
65202;SDS011;51788;45.124;38.966;2023-05-29T13:22:43;6.80;;;4.72;;
65202;SDS011;51788;45.124;38.966;2023-05-29T13:25:12;10.95;;;5.18;;
65202;SDS011;51788;45.124;38.966;2023-05-29T13:27:40;25.88;;;6.03;;
65202;SDS011;51788;45.124;38.966;2023-05-29T13:30:09;11.40;;;5.97;;
65202;SDS011;51788;45.124;38.966;2023-05-29T13:32:36;8.00;;;5.70;;
65202;SDS011;51788;45.124;38.966;2023-05-29T13:35:02;6.60;;;5.82;;
65202;SDS011;51788;45.124;38.966;2023-05-29T13:37:28;12.00;;;5.18;;
65202;SDS011;51788;45.124;38.966;2023-05-29T13:39:54;12.48;;;5.70;;
65202;SDS011;51788;45.124;38.966;2023-05-29T13:42:21;10.90;;;5.70;;
65202;SDS011;51788;45.124;38.966;2023-05-29T13:44:47;12.32;;;5.43;;
65202;SDS011;51788;45.124;38.966;2023-05-29T13:47:14;13.00;;;5.82;;
65202;SDS011;51788;45.124;38.966;2023-05-29T13:49:40;9.10;;;5.35;;
65202;SDS011;51788;45.124;38.966;2023-05-29T13:52:06;12.13;;;6.53;;
65202;SDS011;51788;45.124;38.966;2023-05-29T13:54:32;14.70;;;5.70;;
65202;SDS011;51788;45.124;38.966;2023-05-29T13:57:01;15.02;;;5.18;;
65202;SDS011;51788;45.124;38.966;2023-05-29T13:59:29;12.10;;;5.13;;
65202;SDS011;51788;45.124;38.966;2023-05-29T14:01:59;12.85;;;5.82;;
65202;SDS011;51788;45.124;38.966;2023-05-29T14:04:25;11.15;;;5.43;;
65202;SDS011;51788;45.124;38.966;2023-05-29T14:06:51;13.65;;;5.40;;
65202;SDS011;51788;45.124;38.966;2023-05-29T14:09:18;10.20;;;5.28;;
65202;SDS011;51788;45.124;38.966;2023-05-29T14:11:52;9.50;;;5.90;;
65202;SDS011;51788;45.124;38.966;2023-05-29T14:14:21;11.50;;;6.18;;
65202;SDS011;51788;45.124;38.966;2023-05-29T14:16:48;9.27;;;5.68;;
65202;SDS011;51788;45.124;38.966;2023-05-29T14:19:15;10.82;;;5.47;;
65202;SDS011;51788;45.124;38.966;2023-05-29T14:21:41;11.00;;;5.88;;
65202;SDS011;51788;45.124;38.966;2023-05-29T14:24:07;8.50;;;5.43;;
65202;SDS011;51788;45.124;38.966;2023-05-29T14:26:33;13.43;;;7.43;;
65202;SDS011;51788;45.124;38.966;2023-05-29T14:29:00;6.32;;;5.72;;
65202;SDS011;51788;45.124;38.966;2023-05-29T14:31:27;11.25;;;5.80;;
65202;SDS011;51788;45.124;38.966;2023-05-29T14:33:53;8.18;;;5.88;;
65202;SDS011;51788;45.124;38.966;2023-05-29T14:36:19;13.68;;;5.97;;
65202;SDS011;51788;45.124;38.966;2023-05-29T14:38:45;32.85;;;8.70;;
65202;SDS011;51788;45.124;38.966;2023-05-29T14:41:13;9.20;;;6.07;;
65202;SDS011;51788;45.124;38.966;2023-05-29T14:43:41;9.43;;;6.03;;
65202;SDS011;51788;45.124;38.966;2023-05-29T14:46:07;9.30;;;5.80;;
65202;SDS011;51788;45.124;38.966;2023-05-29T14:48:34;11.23;;;6.80;;
65202;SDS011;51788;45.124;38.966;2023-05-29T14:51:00;9.48;;;5.53;;
65202;SDS011;51788;45.124;38.966;2023-05-29T14:53:26;8.80;;;5.55;;
65202;SDS011;51788;45.124;38.966;2023-05-29T14:55:53;8.13;;;5.70;;
65202;SDS011;51788;45.124;38.966;2023-05-29T14:58:21;11.52;;;6.30;;
65202;SDS011;51788;45.124;38.966;2023-05-29T15:00:47;10.93;;;6.25;;
65202;SDS011;51788;45.124;38.966;2023-05-29T15:03:13;8.57;;;5.90;;
65202;SDS011;51788;45.124;38.966;2023-05-29T15:05:39;10.93;;;6.05;;